sensor_id;sensor_type;location;lat;lon;timestamp;pressure;altitude;pressure_sealevel;temperature;humidity
11041;BME280;5573;49.592;8.662;2023-02-11T00:01:21;101928.66;;;1.27;100.00
11041;BME280;5573;49.592;8.662;2023-02-11T00:03:51;101926.47;;;1.29;100.00
11041;BME280;5573;49.592;8.662;2023-02-11T00:06:18;101908.06;;;1.46;100.00
11041;BME280;5573;49.592;8.662;2023-02-11T00:08:46;101913.78;;;1.55;100.00
11041;BME280;5573;49.592;8.662;2023-02-11T00:11:15;101918.66;;;1.68;100.00
11041;BME280;5573;49.592;8.662;2023-02-11T00:13:45;101917.31;;;1.71;100.00
11041;BME280;5573;49.592;8.662;2023-02-11T00:16:15;101914.63;;;1.76;100.00
11041;BME280;5573;49.592;8.662;2023-02-11T00:18:43;101912.44;;;1.88;100.00
11041;BME280;5573;49.592;8.662;2023-02-11T00:21:13;101911.09;;;2.01;100.00
11041;BME280;5573;49.592;8.662;2023-02-11T00:23:41;101911.88;;;2.32;100.00
11041;BME280;5573;49.592;8.662;2023-02-11T00:26:12;101912.38;;;2.50;100.00
11041;BME280;5573;49.592;8.662;2023-02-11T00:28:41;101865.19;;;2.20;100.00
11041;BME280;5573;49.592;8.662;2023-02-11T00:31:11;101914.22;;;2.70;100.00
11041;BME280;5573;49.592;8.662;2023-02-11T00:33:39;101917.47;;;2.72;100.00
11041;BME280;5573;49.592;8.662;2023-02-11T00:36:09;101922.91;;;2.72;100.00
11041;BME280;5573;49.592;8.662;2023-02-11T00:38:38;101912.84;;;2.67;100.00
11041;BME280;5573;49.592;8.662;2023-02-11T00:41:06;101918.03;;;2.63;100.00
11041;BME280;5573;49.592;8.662;2023-02-11T00:43:34;101917.50;;;2.67;100.00
11041;BME280;5573;49.592;8.662;2023-02-11T00:46:02;101920.47;;;2.70;100.00
11041;BME280;5573;49.592;8.662;2023-02-11T00:48:31;101907.44;;;2.57;100.00
11041;BME280;5573;49.592;8.662;2023-02-11T00:50:59;101910.16;;;2.62;100.00
11041;BME280;5573;49.592;8.662;2023-02-11T00:53:27;101909.59;;;2.65;100.00
11041;BME280;5573;49.592;8.662;2023-02-11T00:55:54;101912.31;;;2.65;100.00
11041;BME280;5573;49.592;8.662;2023-02-11T00:58:24;101917.47;;;2.72;100.00
11041;BME280;5573;49.592;8.662;2023-02-11T01:00:53;101914.00;;;2.51;100.00
11041;BME280;5573;49.592;8.662;2023-02-11T01:03:23;101911.84;;;2.48;100.00
11041;BME280;5573;49.592;8.662;2023-02-11T01:05:52;101913.19;;;2.55;100.00
11041;BME280;5573;49.592;8.662;2023-02-11T01:08:20;101911.53;;;2.59;100.00
11041;BME280;5573;49.592;8.662;2023-02-11T01:10:53;101913.44;;;2.54;100.00
11041;BME280;5573;49.592;8.662;2023-02-11T01:13:21;101904.44;;;2.69;100.00
11041;BME280;5573;49.592;8.662;2023-02-11T01:15:49;101908.75;;;2.80;100.00
11041;BME280;5573;49.592;8.662;2023-02-11T01:18:18;101905.81;;;2.66;100.00
11041;BME280;5573;49.592;8.662;2023-02-11T01:20:47;101903.94;;;2.61;100.00
11041;BME280;5573;49.592;8.662;2023-02-11T01:23:17;101906.56;;;2.87;100.00
11041;BME280;5573;49.592;8.662;2023-02-11T01:25:45;101900.53;;;2.90;100.00
11041;BME280;5573;49.592;8.662;2023-02-11T01:28:15;101900.31;;;2.81;100.00
11041;BME280;5573;49.592;8.662;2023-02-11T01:30:43;101894.56;;;2.93;100.00
11041;BME280;5573;49.592;8.662;2023-02-11T01:33:11;101881.28;;;2.81;100.00
11041;BME280;5573;49.592;8.662;2023-02-11T01:35:39;101889.13;;;2.88;100.00
11041;BME280;5573;49.592;8.662;2023-02-11T01:38:13;101888.56;;;2.96;100.00
11041;BME280;5573;49.592;8.662;2023-02-11T01:40:47;101881.69;;;3.14;100.00
11041;BME280;5573;49.592;8.662;2023-02-11T01:43:15;101886.13;;;2.95;100.00
11041;BME280;5573;49.592;8.662;2023-02-11T01:45:56;101872.69;;;3.19;100.00
11041;BME280;5573;49.592;8.662;2023-02-11T01:48:28;101866.94;;;3.20;100.00
11041;BME280;5573;49.592;8.662;2023-02-11T01:51:01;101869.97;;;3.14;100.00
11041;BME280;5573;49.592;8.662;2023-02-11T01:53:31;101868.09;;;3.14;100.00
11041;BME280;5573;49.592;8.662;2023-02-11T01:56:19;101867.56;;;3.07;100.00
11041;BME280;5573;49.592;8.662;2023-02-11T01:59:07;101858.88;;;3.05;100.00
11041;BME280;5573;49.592;8.662;2023-02-11T02:01:39;101857.53;;;3.02;100.00
11041;BME280;5573;49.592;8.662;2023-02-11T02:04:17;101851.44;;;3.21;98.41
11041;BME280;5573;49.592;8.662;2023-02-11T02:06:48;101839.50;;;3.17;99.33
11041;BME280;5573;49.592;8.662;2023-02-11T02:09:19;101841.72;;;3.10;100.00
11041;BME280;5573;49.592;8.662;2023-02-11T02:11:50;101835.47;;;3.09;100.00
11041;BME280;5573;49.592;8.662;2023-02-11T02:14:19;101819.22;;;2.99;100.00
11041;BME280;5573;49.592;8.662;2023-02-11T02:16:46;101827.31;;;3.09;100.00
11041;BME280;5573;49.592;8.662;2023-02-11T02:19:40;101824.03;;;3.12;100.00
11041;BME280;5573;49.592;8.662;2023-02-11T02:22:34;101828.63;;;3.17;99.89
11041;BME280;5573;49.592;8.662;2023-02-11T02:25:19;101833.16;;;3.26;99.13
11041;BME280;5573;49.592;8.662;2023-02-11T02:28:07;101823.94;;;3.28;99.85
11041;BME280;5573;49.592;8.662;2023-02-11T02:30:54;101828.13;;;3.10;100.00
11041;BME280;5573;49.592;8.662;2023-02-11T02:33:37;101817.97;;;3.25;99.40
11041;BME280;5573;49.592;8.662;2023-02-11T02:36:14;101822.81;;;3.34;98.76
11041;BME280;5573;49.592;8.662;2023-02-11T02:38:49;101815.09;;;3.07;100.00
11041;BME280;5573;49.592;8.662;2023-02-11T02:41:19;101810.88;;;3.24;100.00
11041;BME280;5573;49.592;8.662;2023-02-11T02:43:49;101808.25;;;3.14;99.57
11041;BME280;5573;49.592;8.662;2023-02-11T02:46:19;101814.28;;;3.06;100.00
11041;BME280;5573;49.592;8.662;2023-02-11T02:48:50;101817.00;;;3.06;100.00
11041;BME280;5573;49.592;8.662;2023-02-11T02:51:49;101798.28;;;2.99;100.00
11041;BME280;5573;49.592;8.662;2023-02-11T02:54:46;101797.53;;;2.89;100.00
11041;BME280;5573;49.592;8.662;2023-02-11T02:57:28;101778.41;;;2.59;100.00
11041;BME280;5573;49.592;8.662;2023-02-11T03:00:07;101804.31;;;2.91;100.00
11041;BME280;5573;49.592;8.662;2023-02-11T03:02:42;101803.00;;;2.83;100.00
11041;BME280;5573;49.592;8.662;2023-02-11T03:05:20;101788.56;;;2.88;100.00
11041;BME280;5573;49.592;8.662;2023-02-11T03:07:54;101802.75;;;2.80;100.00
11041;BME280;5573;49.592;8.662;2023-02-11T03:10:27;101807.59;;;2.88;100.00
11041;BME280;5573;49.592;8.662;2023-02-11T03:12:57;101796.44;;;2.84;100.00
11041;BME280;5573;49.592;8.662;2023-02-11T03:15:27;101815.47;;;2.84;100.00
11041;BME280;5573;49.592;8.662;2023-02-11T03:17:59;101815.47;;;2.84;100.00
11041;BME280;5573;49.592;8.662;2023-02-11T03:20:32;101803.31;;;2.77;100.00
11041;BME280;5573;49.592;8.662;2023-02-11T03:23:09;101821.53;;;2.71;100.00
11041;BME280;5573;49.592;8.662;2023-02-11T03:25:43;101824.53;;;2.75;100.00
11041;BME280;5573;49.592;8.662;2023-02-11T03:28:15;101822.84;;;2.84;100.00
11041;BME280;5573;49.592;8.662;2023-02-11T03:30:50;101825.50;;;2.94;100.00
11041;BME280;5573;49.592;8.662;2023-02-11T03:33:24;101840.19;;;2.93;100.00
11041;BME280;5573;49.592;8.662;2023-02-11T03:35:57;101796.44;;;2.84;100.00
11041;BME280;5573;49.592;8.662;2023-02-11T03:38:30;101818.09;;;3.05;100.00
11041;BME280;5573;49.592;8.662;2023-02-11T03:41:01;101805.44;;;2.85;100.00
11041;BME280;5573;49.592;8.662;2023-02-11T03:43:33;101806.47;;;2.94;100.00
11041;BME280;5573;49.592;8.662;2023-02-11T03:46:03;101796.97;;;2.92;100.00
11041;BME280;5573;49.592;8.662;2023-02-11T03:48:34;101793.94;;;2.98;100.00
11041;BME280;5573;49.592;8.662;2023-02-11T03:51:07;101784.66;;;3.04;100.00
11041;BME280;5573;49.592;8.662;2023-02-11T03:53:37;101801.75;;;3.10;100.00
11041;BME280;5573;49.592;8.662;2023-02-11T03:56:10;101801.97;;;3.19;100.00
11041;BME280;5573;49.592;8.662;2023-02-11T03:58:39;101802.31;;;3.07;100.00
11041;BME280;5573;49.592;8.662;2023-02-11T04:01:07;101797.81;;;2.87;100.00
11041;BME280;5573;49.592;8.662;2023-02-11T04:03:35;101784.38;;;3.06;100.00
11041;BME280;5573;49.592;8.662;2023-02-11T04:06:05;101800.69;;;3.06;100.00
11041;BME280;5573;49.592;8.662;2023-02-11T04:08:32;101789.81;;;3.06;100.00
11041;BME280;5573;49.592;8.662;2023-02-11T04:11:00;101786.56;;;3.04;100.00
11041;BME280;5573;49.592;8.662;2023-02-11T04:13:28;101772.28;;;2.83;100.00
11041;BME280;5573;49.592;8.662;2023-02-11T04:15:56;101773.44;;;2.72;100.00
11041;BME280;5573;49.592;8.662;2023-02-11T04:18:23;101771.75;;;2.81;100.00
11041;BME280;5573;49.592;8.662;2023-02-11T04:20:51;101765.28;;;2.72;100.00
11041;BME280;5573;49.592;8.662;2023-02-11T04:23:20;101759.13;;;2.51;100.00
11041;BME280;5573;49.592;8.662;2023-02-11T04:25:48;101755.31;;;2.57;100.00
11041;BME280;5573;49.592;8.662;2023-02-11T04:28:16;101740.91;;;2.56;100.00
11041;BME280;5573;49.592;8.662;2023-02-11T04:30:44;101741.19;;;2.55;100.00
11041;BME280;5573;49.592;8.662;2023-02-11T04:33:12;101737.13;;;2.52;100.00
11041;BME280;5573;49.592;8.662;2023-02-11T04:35:40;101738.53;;;2.44;100.00
11041;BME280;5573;49.592;8.662;2023-02-11T04:38:08;101724.13;;;2.44;100.00
11041;BME280;5573;49.592;8.662;2023-02-11T04:40:37;101740.78;;;2.27;100.00
11041;BME280;5573;49.592;8.662;2023-02-11T04:43:04;101732.91;;;2.31;100.00
11041;BME280;5573;49.592;8.662;2023-02-11T04:45:32;101730.25;;;2.15;100.00
11041;BME280;5573;49.592;8.662;2023-02-11T04:48:00;101750.31;;;2.24;100.00
11041;BME280;5573;49.592;8.662;2023-02-11T04:50:28;101758.19;;;2.21;100.00
11041;BME280;5573;49.592;8.662;2023-02-11T04:52:56;101767.09;;;2.32;100.00
11041;BME280;5573;49.592;8.662;2023-02-11T04:55:24;101757.38;;;2.20;100.00
11041;BME280;5573;49.592;8.662;2023-02-11T04:57:53;101765.50;;;2.26;100.00
11041;BME280;5573;49.592;8.662;2023-02-11T05:00:21;101772.06;;;2.14;100.00
11041;BME280;5573;49.592;8.662;2023-02-11T05:02:49;101760.66;;;2.17;100.00
11041;BME280;5573;49.592;8.662;2023-02-11T05:05:17;101769.16;;;1.90;100.00
11041;BME280;5573;49.592;8.662;2023-02-11T05:07:45;101766.66;;;2.09;100.00
11041;BME280;5573;49.592;8.662;2023-02-11T05:10:14;101773.19;;;1.98;100.00
11041;BME280;5573;49.592;8.662;2023-02-11T05:12:41;101774.81;;;1.99;100.00
11041;BME280;5573;49.592;8.662;2023-02-11T05:15:10;101792.44;;;2.07;100.00
11041;BME280;5573;49.592;8.662;2023-02-11T05:17:38;101794.59;;;2.15;100.00
11041;BME280;5573;49.592;8.662;2023-02-11T05:20:07;101778.88;;;2.01;100.00
11041;BME280;5573;49.592;8.662;2023-02-11T05:22:35;101789.50;;;1.93;100.00
11041;BME280;5573;49.592;8.662;2023-02-11T05:25:03;101784.59;;;2.05;100.00
11041;BME280;5573;49.592;8.662;2023-02-11T05:27:31;101777.25;;;2.06;100.00
11041;BME280;5573;49.592;8.662;2023-02-11T05:29:58;101753.66;;;1.91;100.00
11041;BME280;5573;49.592;8.662;2023-02-11T05:32:27;101757.69;;;2.09;100.00
11041;BME280;5573;49.592;8.662;2023-02-11T05:34:55;101750.53;;;2.33;100.00
11041;BME280;5573;49.592;8.662;2023-02-11T05:37:23;101740.09;;;2.56;100.00
11041;BME280;5573;49.592;8.662;2023-02-11T05:39:51;101745.06;;;2.43;100.00
11041;BME280;5573;49.592;8.662;2023-02-11T05:42:18;101743.63;;;2.56;100.00
11041;BME280;5573;49.592;8.662;2023-02-11T05:44:46;101749.91;;;2.52;100.00
11041;BME280;5573;49.592;8.662;2023-02-11T05:47:16;101748.25;;;2.56;100.00
11041;BME280;5573;49.592;8.662;2023-02-11T05:49:45;101742.03;;;2.55;100.00
11041;BME280;5573;49.592;8.662;2023-02-11T05:52:12;101750.16;;;2.55;100.00
11041;BME280;5573;49.592;8.662;2023-02-11T05:54:40;101756.41;;;2.51;100.00
11041;BME280;5573;49.592;8.662;2023-02-11T05:57:08;101750.94;;;2.66;100.00
11041;BME280;5573;49.592;8.662;2023-02-11T05:59:36;101739.00;;;2.57;100.00
11041;BME280;5573;49.592;8.662;2023-02-11T06:02:04;101745.88;;;2.44;100.00
11041;BME280;5573;49.592;8.662;2023-02-11T06:04:33;101718.47;;;2.35;100.00
11041;BME280;5573;49.592;8.662;2023-02-11T06:07:02;101739.03;;;2.52;100.00
11041;BME280;5573;49.592;8.662;2023-02-11T06:09:30;101747.53;;;2.35;100.00
11041;BME280;5573;49.592;8.662;2023-02-11T06:11:58;101748.56;;;2.44;100.00
11041;BME280;5573;49.592;8.662;2023-02-11T06:14:26;101750.19;;;2.50;100.00
11041;BME280;5573;49.592;8.662;2023-02-11T06:16:53;101736.59;;;2.55;100.00
11041;BME280;5573;49.592;8.662;2023-02-11T06:19:21;101736.53;;;2.60;100.00
11041;BME280;5573;49.592;8.662;2023-02-11T06:21:48;101725.72;;;2.55;100.00
11041;BME280;5573;49.592;8.662;2023-02-11T06:24:17;101738.78;;;2.53;100.00
11041;BME280;5573;49.592;8.662;2023-02-11T06:27:05;101718.56;;;2.20;100.00
11041;BME280;5573;49.592;8.662;2023-02-11T06:29:33;101758.91;;;2.42;100.00
11041;BME280;5573;49.592;8.662;2023-02-11T06:32:01;101750.50;;;2.43;100.00
11041;BME280;5573;49.592;8.662;2023-02-11T06:34:29;101757.03;;;2.42;100.00
11041;BME280;5573;49.592;8.662;2023-02-11T06:36:56;101763.13;;;2.63;100.00
11041;BME280;5573;49.592;8.662;2023-02-11T06:39:25;101754.19;;;2.63;100.00
11041;BME280;5573;49.592;8.662;2023-02-11T06:41:53;101752.56;;;2.62;100.00
11041;BME280;5573;49.592;8.662;2023-02-11T06:44:21;101754.53;;;2.46;100.00
11041;BME280;5573;49.592;8.662;2023-02-11T06:46:49;101756.41;;;2.51;100.00
11041;BME280;5573;49.592;8.662;2023-02-11T06:49:16;101751.88;;;2.41;100.00
11041;BME280;5573;49.592;8.662;2023-02-11T06:51:44;101755.69;;;2.35;100.00
11041;BME280;5573;49.592;8.662;2023-02-11T06:54:12;101765.44;;;2.36;100.00
11041;BME280;5573;49.592;8.662;2023-02-11T06:56:41;101774.41;;;2.41;100.00
11041;BME280;5573;49.592;8.662;2023-02-11T06:59:12;101775.22;;;2.42;100.00
11041;BME280;5573;49.592;8.662;2023-02-11T07:01:41;101770.34;;;2.39;100.00
11041;BME280;5573;49.592;8.662;2023-02-11T07:04:09;101771.09;;;2.50;100.00
11041;BME280;5573;49.592;8.662;2023-02-11T07:06:37;101770.34;;;2.39;100.00
11041;BME280;5573;49.592;8.662;2023-02-11T07:09:04;101758.88;;;2.52;100.00
11041;BME280;5573;49.592;8.662;2023-02-11T07:11:32;101747.78;;;2.43;100.00
11041;BME280;5573;49.592;8.662;2023-02-11T07:14:03;101754.53;;;2.46;100.00
11041;BME280;5573;49.592;8.662;2023-02-11T07:16:33;101745.88;;;2.44;100.00
11041;BME280;5573;49.592;8.662;2023-02-11T07:19:01;101773.31;;;2.42;100.00
11041;BME280;5573;49.592;8.662;2023-02-11T07:21:29;101772.47;;;2.47;100.00
11041;BME280;5573;49.592;8.662;2023-02-11T07:23:57;101776.28;;;2.46;100.00
11041;BME280;5573;49.592;8.662;2023-02-11T07:26:25;101780.59;;;2.57;100.00
11041;BME280;5573;49.592;8.662;2023-02-11T07:28:52;101772.66;;;2.66;100.00
11041;BME280;5573;49.592;8.662;2023-02-11T07:31:23;101760.44;;;2.63;100.00
11041;BME280;5573;49.592;8.662;2023-02-11T07:33:52;101759.63;;;2.63;100.00
11041;BME280;5573;49.592;8.662;2023-02-11T07:36:20;101775.06;;;2.68;100.00
11041;BME280;5573;49.592;8.662;2023-02-11T07:38:48;101780.59;;;2.52;100.00
11041;BME280;5573;49.592;8.662;2023-02-11T07:41:18;101777.03;;;2.57;100.00
11041;BME280;5573;49.592;8.662;2023-02-11T07:43:46;101761.03;;;2.50;100.00
11041;BME280;5573;49.592;8.662;2023-02-11T07:46:15;101784.88;;;2.69;100.00
11041;BME280;5573;49.592;8.662;2023-02-11T07:48:46;101790.44;;;2.93;100.00
11041;BME280;5573;49.592;8.662;2023-02-11T07:51:15;101782.47;;;3.01;100.00
11041;BME280;5573;49.592;8.662;2023-02-11T07:53:44;101790.09;;;3.04;100.00
11041;BME280;5573;49.592;8.662;2023-02-11T07:56:13;101791.38;;;3.17;100.00
11041;BME280;5573;49.592;8.662;2023-02-11T07:58:41;101797.53;;;3.33;99.81
11041;BME280;5573;49.592;8.662;2023-02-11T08:01:11;101786.84;;;3.37;98.27
11041;BME280;5573;49.592;8.662;2023-02-11T08:03:39;101780.56;;;3.41;97.72
11041;BME280;5573;49.592;8.662;2023-02-11T08:06:11;101782.25;;;3.37;98.65
11041;BME280;5573;49.592;8.662;2023-02-11T08:08:39;101785.56;;;3.29;97.64
11041;BME280;5573;49.592;8.662;2023-02-11T08:11:08;101786.31;;;3.35;97.51
11041;BME280;5573;49.592;8.662;2023-02-11T08:13:37;101791.34;;;3.57;95.47
11041;BME280;5573;49.592;8.662;2023-02-11T08:16:05;101784.97;;;3.37;96.54
11041;BME280;5573;49.592;8.662;2023-02-11T08:18:34;101779.91;;;3.55;95.45
11041;BME280;5573;49.592;8.662;2023-02-11T08:21:05;101777.00;;;3.75;92.68
11041;BME280;5573;49.592;8.662;2023-02-11T08:23:36;101778.91;;;3.75;93.31
11041;BME280;5573;49.592;8.662;2023-02-11T08:26:06;101789.34;;;3.92;92.43
11041;BME280;5573;49.592;8.662;2023-02-11T08:28:35;101793.38;;;3.99;90.29
11041;BME280;5573;49.592;8.662;2023-02-11T08:31:04;101784.81;;;4.11;91.45
11041;BME280;5573;49.592;8.662;2023-02-11T08:33:33;101785.38;;;4.08;90.07
11041;BME280;5573;49.592;8.662;2023-02-11T08:36:07;101784.50;;;3.89;90.50
11041;BME280;5573;49.592;8.662;2023-02-11T08:38:36;101789.69;;;3.85;89.84
11041;BME280;5573;49.592;8.662;2023-02-11T08:41:04;101780.09;;;3.34;93.50
11041;BME280;5573;49.592;8.662;2023-02-11T08:43:32;101788.03;;;3.25;94.70
11041;BME280;5573;49.592;8.662;2023-02-11T08:46:00;101791.44;;;3.41;94.67
11041;BME280;5573;49.592;8.662;2023-02-11T08:48:28;101777.31;;;3.39;93.75
11041;BME280;5573;49.592;8.662;2023-02-11T08:50:56;101795.81;;;3.72;92.91
11041;BME280;5573;49.592;8.662;2023-02-11T08:53:24;101804.72;;;3.77;92.41
11041;BME280;5573;49.592;8.662;2023-02-11T08:55:54;101801.97;;;3.82;92.00
11041;BME280;5573;49.592;8.662;2023-02-11T08:58:22;101807.16;;;4.08;90.31
11041;BME280;5573;49.592;8.662;2023-02-11T09:00:49;101809.00;;;3.89;92.37
11041;BME280;5573;49.592;8.662;2023-02-11T09:03:17;101809.75;;;3.94;91.27
11041;BME280;5573;49.592;8.662;2023-02-11T09:05:46;101810.94;;;3.83;92.30
11041;BME280;5573;49.592;8.662;2023-02-11T09:08:15;101811.81;;;4.07;90.36
11041;BME280;5573;49.592;8.662;2023-02-11T09:10:43;101812.75;;;4.22;88.39
11041;BME280;5573;49.592;8.662;2023-02-11T09:13:12;101810.13;;;4.36;87.71
11041;BME280;5573;49.592;8.662;2023-02-11T09:15:43;101810.28;;;4.44;87.38
11041;BME280;5573;49.592;8.662;2023-02-11T09:18:11;101813.06;;;4.63;86.06
11041;BME280;5573;49.592;8.662;2023-02-11T09:20:39;101830.97;;;4.69;85.72
11041;BME280;5573;49.592;8.662;2023-02-11T09:23:06;101831.09;;;4.59;84.99
11041;BME280;5573;49.592;8.662;2023-02-11T09:25:37;101828.19;;;4.75;85.22
11041;BME280;5573;49.592;8.662;2023-02-11T09:28:05;101821.09;;;4.74;85.40
11041;BME280;5573;49.592;8.662;2023-02-11T09:30:35;101833.81;;;4.59;86.36
11041;BME280;5573;49.592;8.662;2023-02-11T09:33:03;101826.19;;;4.80;84.33
11041;BME280;5573;49.592;8.662;2023-02-11T09:35:32;101824.28;;;4.62;86.75
11041;BME280;5573;49.592;8.662;2023-02-11T09:38:00;101827.44;;;4.69;86.05
11041;BME280;5573;49.592;8.662;2023-02-11T09:40:27;101829.16;;;4.41;88.08
11041;BME280;5573;49.592;8.662;2023-02-11T09:43:03;101825.63;;;4.59;86.92
11041;BME280;5573;49.592;8.662;2023-02-11T09:45:35;101820.19;;;4.59;87.60
11041;BME280;5573;49.592;8.662;2023-02-11T09:48:09;101811.09;;;4.69;86.19
11041;BME280;5573;49.592;8.662;2023-02-11T09:50:41;101822.59;;;4.85;86.94
11041;BME280;5573;49.592;8.662;2023-02-11T09:53:13;101820.59;;;4.91;85.15
11041;BME280;5573;49.592;8.662;2023-02-11T09:55:45;101818.41;;;4.93;86.23
11041;BME280;5573;49.592;8.662;2023-02-11T09:58:15;101823.56;;;5.13;84.96
11041;BME280;5573;49.592;8.662;2023-02-11T10:00:52;101823.78;;;4.98;85.38
11041;BME280;5573;49.592;8.662;2023-02-11T10:03:40;101818.69;;;5.10;85.68
11041;BME280;5573;49.592;8.662;2023-02-11T10:06:34;101819.06;;;5.22;84.40
11041;BME280;5573;49.592;8.662;2023-02-11T10:09:15;101822.50;;;5.47;81.71
11041;BME280;5573;49.592;8.662;2023-02-11T10:11:51;101823.84;;;5.30;81.77
11041;BME280;5573;49.592;8.662;2023-02-11T10:14:41;101818.03;;;5.84;100.00
11041;BME280;5573;49.592;8.662;2023-02-11T10:17:19;101826.34;;;6.25;97.59
11041;BME280;5573;49.592;8.662;2023-02-11T10:20:00;101835.34;;;6.40;82.03
11041;BME280;5573;49.592;8.662;2023-02-11T10:22:32;101829.38;;;7.61;93.81
11041;BME280;5573;49.592;8.662;2023-02-11T10:25:10;101823.97;;;7.47;73.12
11041;BME280;5573;49.592;8.662;2023-02-11T10:27:43;101816.31;;;7.35;69.86
11041;BME280;5573;49.592;8.662;2023-02-11T10:30:19;101826.91;;;7.28;71.03
11041;BME280;5573;49.592;8.662;2023-02-11T10:32:53;101830.97;;;7.17;70.68
11041;BME280;5573;49.592;8.662;2023-02-11T10:35:23;101820.44;;;7.46;70.15
11041;BME280;5573;49.592;8.662;2023-02-11T10:37:53;101783.84;;;7.20;70.91
11041;BME280;5573;49.592;8.662;2023-02-11T10:40:23;101817.94;;;7.59;79.47
11041;BME280;5573;49.592;8.662;2023-02-11T10:42:52;101811.84;;;7.39;69.33
11041;BME280;5573;49.592;8.662;2023-02-11T10:45:26;101816.88;;;6.87;73.25
11041;BME280;5573;49.592;8.662;2023-02-11T10:47:55;101821.38;;;6.55;73.98
11041;BME280;5573;49.592;8.662;2023-02-11T10:50:26;101816.31;;;6.48;75.91
11041;BME280;5573;49.592;8.662;2023-02-11T10:53:10;101822.00;;;6.52;76.29
11041;BME280;5573;49.592;8.662;2023-02-11T10:55:48;101824.31;;;6.45;77.11
11041;BME280;5573;49.592;8.662;2023-02-11T10:58:23;101812.25;;;6.32;77.50
11041;BME280;5573;49.592;8.662;2023-02-11T11:00:53;101812.34;;;6.41;78.48
11041;BME280;5573;49.592;8.662;2023-02-11T11:03:25;101818.03;;;6.58;76.26
11041;BME280;5573;49.592;8.662;2023-02-11T11:05:55;101798.28;;;6.61;77.61
11041;BME280;5573;49.592;8.662;2023-02-11T11:08:38;101796.16;;;6.58;77.33
11041;BME280;5573;49.592;8.662;2023-02-11T11:11:08;101814.25;;;6.82;75.29
11041;BME280;5573;49.592;8.662;2023-02-11T11:13:37;101819.66;;;6.73;76.48
11041;BME280;5573;49.592;8.662;2023-02-11T11:18:52;101829.72;;;7.00;76.96
11041;BME280;5573;49.592;8.662;2023-02-11T11:21:22;101825.25;;;7.04;74.52
11041;BME280;5573;49.592;8.662;2023-02-11T11:23:53;101826.56;;;7.07;73.97
11041;BME280;5573;49.592;8.662;2023-02-11T11:26:23;101823.53;;;7.31;73.98
11041;BME280;5573;49.592;8.662;2023-02-11T11:28:57;101836.63;;;7.34;71.79
11041;BME280;5573;49.592;8.662;2023-02-11T11:31:29;101839.94;;;7.31;74.18
11041;BME280;5573;49.592;8.662;2023-02-11T11:34:05;101777.84;;;6.95;74.52
11041;BME280;5573;49.592;8.662;2023-02-11T11:36:44;101840.09;;;7.26;74.34
11041;BME280;5573;49.592;8.662;2023-02-11T11:39:19;101835.63;;;7.30;73.99
11041;BME280;5573;49.592;8.662;2023-02-11T11:41:53;101838.63;;;7.42;74.04
11041;BME280;5573;49.592;8.662;2023-02-11T11:44:30;101841.72;;;7.49;74.61
11041;BME280;5573;49.592;8.662;2023-02-11T11:47:16;101771.75;;;7.43;73.18
11041;BME280;5573;49.592;8.662;2023-02-11T11:49:54;101807.41;;;8.06;70.98
11041;BME280;5573;49.592;8.662;2023-02-11T11:52:34;101807.75;;;8.13;69.57
11041;BME280;5573;49.592;8.662;2023-02-11T11:55:10;101810.59;;;7.99;70.02
11041;BME280;5573;49.592;8.662;2023-02-11T11:57:39;101749.28;;;7.86;70.74
11041;BME280;5573;49.592;8.662;2023-02-11T12:00:14;101786.78;;;8.57;69.29
11041;BME280;5573;49.592;8.662;2023-02-11T12:05:57;101785.56;;;9.07;65.67
11041;BME280;5573;49.592;8.662;2023-02-11T12:08:38;101794.13;;;8.97;64.69
11041;BME280;5573;49.592;8.662;2023-02-11T12:11:15;101778.75;;;8.69;66.36
11041;BME280;5573;49.592;8.662;2023-02-11T12:13:58;101795.50;;;8.59;66.95
11041;BME280;5573;49.592;8.662;2023-02-11T12:16:36;101796.59;;;8.41;68.30
11041;BME280;5573;49.592;8.662;2023-02-11T12:19:33;101799.41;;;8.58;68.77
11041;BME280;5573;49.592;8.662;2023-02-11T12:22:09;101797.44;;;8.50;66.55
11041;BME280;5573;49.592;8.662;2023-02-11T12:24:55;101789.56;;;8.17;68.31
11041;BME280;5573;49.592;8.662;2023-02-11T12:27:38;101800.78;;;8.07;70.82
11041;BME280;5573;49.592;8.662;2023-02-11T12:30:18;101790.00;;;8.10;73.69
11041;BME280;5573;49.592;8.662;2023-02-11T12:32:52;101790.44;;;8.35;69.22
11041;BME280;5573;49.592;8.662;2023-02-11T12:35:29;101801.03;;;8.28;69.21
11041;BME280;5573;49.592;8.662;2023-02-11T12:38:14;101799.91;;;8.20;69.65
11041;BME280;5573;49.592;8.662;2023-02-11T12:40:46;101800.31;;;8.13;72.05
11041;BME280;5573;49.592;8.662;2023-02-11T12:43:21;101792.28;;;8.17;71.16
11041;BME280;5573;49.592;8.662;2023-02-11T12:46:31;101793.59;;;8.20;72.05
11041;BME280;5573;49.592;8.662;2023-02-11T12:49:24;101790.97;;;8.46;71.90
11041;BME280;5573;49.592;8.662;2023-02-11T12:52:21;101790.63;;;8.47;70.51
11041;BME280;5573;49.592;8.662;2023-02-11T12:54:56;101791.47;;;8.48;71.09
11041;BME280;5573;49.592;8.662;2023-02-11T12:57:27;101788.88;;;8.51;72.08
11041;BME280;5573;49.592;8.662;2023-02-11T12:59:59;101793.41;;;8.56;72.55
11041;BME280;5573;49.592;8.662;2023-02-11T13:02:35;101791.47;;;8.48;72.61
11041;BME280;5573;49.592;8.662;2023-02-11T13:05:21;101791.50;;;8.25;76.74
11041;BME280;5573;49.592;8.662;2023-02-11T13:07:54;101781.53;;;8.29;76.56
11041;BME280;5573;49.592;8.662;2023-02-11T13:10:28;101792.81;;;8.28;76.25
11041;BME280;5573;49.592;8.662;2023-02-11T13:12:58;101778.59;;;8.26;78.85
11041;BME280;5573;49.592;8.662;2023-02-11T13:15:50;101781.69;;;8.24;76.92
11041;BME280;5573;49.592;8.662;2023-02-11T13:18:34;101773.75;;;8.14;79.27
11041;BME280;5573;49.592;8.662;2023-02-11T13:21:25;101765.25;;;8.24;77.83
11041;BME280;5573;49.592;8.662;2023-02-11T13:24:04;101767.34;;;8.27;79.24
11041;BME280;5573;49.592;8.662;2023-02-11T13:26:41;101763.00;;;8.35;79.95
11041;BME280;5573;49.592;8.662;2023-02-11T13:29:19;101764.03;;;8.48;78.43
11041;BME280;5573;49.592;8.662;2023-02-11T13:31:52;101764.72;;;8.62;77.16
11041;BME280;5573;49.592;8.662;2023-02-11T13:34:25;101732.66;;;8.31;78.43
11041;BME280;5573;49.592;8.662;2023-02-11T13:36:54;101771.00;;;8.71;78.16